sensor_id;sensor_type;location;lat;lon;timestamp;pressure;altitude;pressure_sealevel;temperature;humidity
16664;BME280;8445;51.270;9.434;2022-08-19T00:01:54;99092.09;;;22.09;62.85
16664;BME280;8445;51.270;9.434;2022-08-19T00:04:25;99094.63;;;22.17;66.27
16664;BME280;8445;51.270;9.434;2022-08-19T00:06:52;99095.88;;;22.15;63.13
16664;BME280;8445;51.270;9.434;2022-08-19T00:09:21;99095.25;;;22.13;64.87
16664;BME280;8445;51.270;9.434;2022-08-19T00:11:48;99093.59;;;22.12;63.47
16664;BME280;8445;51.270;9.434;2022-08-19T00:14:16;99092.94;;;22.10;62.83
16664;BME280;8445;51.270;9.434;2022-08-19T00:16:46;99085.28;;;22.13;62.10
16664;BME280;8445;51.270;9.434;2022-08-19T00:19:13;99089.47;;;22.16;61.77
16664;BME280;8445;51.270;9.434;2022-08-19T00:21:39;99083.84;;;22.11;62.27
16664;BME280;8445;51.270;9.434;2022-08-19T00:24:08;99082.81;;;22.18;63.11
16664;BME280;8445;51.270;9.434;2022-08-19T00:26:36;99075.13;;;22.09;62.00
16664;BME280;8445;51.270;9.434;2022-08-19T00:29:05;99064.75;;;22.05;64.11
16664;BME280;8445;51.270;9.434;2022-08-19T00:31:31;99076.13;;;22.01;63.84
16664;BME280;8445;51.270;9.434;2022-08-19T00:33:57;99088.97;;;22.05;62.67
16664;BME280;8445;51.270;9.434;2022-08-19T00:36:23;99091.06;;;22.10;62.62
16664;BME280;8445;51.270;9.434;2022-08-19T00:38:49;99095.16;;;21.99;63.65
16664;BME280;8445;51.270;9.434;2022-08-19T00:41:21;99083.19;;;22.09;63.58
16664;BME280;8445;51.270;9.434;2022-08-19T00:44:10;99087.41;;;22.18;63.58
16664;BME280;8445;51.270;9.434;2022-08-19T00:46:40;99080.50;;;22.02;63.49
16664;BME280;8445;51.270;9.434;2022-08-19T00:49:16;99081.94;;;22.04;67.23
16664;BME280;8445;51.270;9.434;2022-08-19T00:51:57;99074.50;;;22.06;68.14
16664;BME280;8445;51.270;9.434;2022-08-19T00:54:25;99073.69;;;22.06;64.20
16664;BME280;8445;51.270;9.434;2022-08-19T00:56:52;99088.59;;;22.09;62.94
16664;BME280;8445;51.270;9.434;2022-08-19T00:59:19;99072.81;;;22.05;63.18
16664;BME280;8445;51.270;9.434;2022-08-19T01:01:46;99069.94;;;22.07;63.00
16664;BME280;8445;51.270;9.434;2022-08-19T01:04:13;99065.13;;;21.96;62.65
16664;BME280;8445;51.270;9.434;2022-08-19T01:06:40;99066.97;;;21.95;63.34
16664;BME280;8445;51.270;9.434;2022-08-19T01:09:08;99063.47;;;21.95;63.49
16664;BME280;8445;51.270;9.434;2022-08-19T01:11:41;99054.53;;;21.94;66.59
16664;BME280;8445;51.270;9.434;2022-08-19T01:14:10;99050.81;;;21.95;63.84
16664;BME280;8445;51.270;9.434;2022-08-19T01:16:39;99050.19;;;21.93;63.22
16664;BME280;8445;51.270;9.434;2022-08-19T01:19:27;99050.00;;;22.01;67.20
16664;BME280;8445;51.270;9.434;2022-08-19T01:22:14;99044.63;;;22.01;64.00
16664;BME280;8445;51.270;9.434;2022-08-19T01:24:42;99047.88;;;21.90;61.87
16664;BME280;8445;51.270;9.434;2022-08-19T01:27:08;99044.78;;;21.86;62.54
16664;BME280;8445;51.270;9.434;2022-08-19T01:29:39;99052.63;;;21.88;66.74
16664;BME280;8445;51.270;9.434;2022-08-19T01:32:13;99052.22;;;21.91;63.73
16664;BME280;8445;51.270;9.434;2022-08-19T01:34:41;99059.03;;;21.87;63.05
16664;BME280;8445;51.270;9.434;2022-08-19T01:37:11;99055.31;;;21.88;63.17
16664;BME280;8445;51.270;9.434;2022-08-19T01:39:40;99064.25;;;21.88;62.75
16664;BME280;8445;51.270;9.434;2022-08-19T01:42:08;99060.72;;;21.88;63.62
16664;BME280;8445;51.270;9.434;2022-08-19T01:44:36;99055.72;;;21.85;64.28
16664;BME280;8445;51.270;9.434;2022-08-19T01:47:02;99061.16;;;21.91;63.00
16664;BME280;8445;51.270;9.434;2022-08-19T01:49:29;99064.00;;;21.83;63.35
16664;BME280;8445;51.270;9.434;2022-08-19T01:51:56;99051.19;;;21.85;63.71
16664;BME280;8445;51.270;9.434;2022-08-19T01:54:24;99051.94;;;21.72;66.67
16664;BME280;8445;51.270;9.434;2022-08-19T01:56:52;99056.34;;;21.87;65.31
16664;BME280;8445;51.270;9.434;2022-08-19T01:59:22;99058.25;;;21.93;64.13
16664;BME280;8445;51.270;9.434;2022-08-19T02:01:49;99057.44;;;21.92;63.56
16664;BME280;8445;51.270;9.434;2022-08-19T02:04:15;99058.31;;;22.00;63.07
16664;BME280;8445;51.270;9.434;2022-08-19T02:12:15;99064.66;;;21.85;63.55
16664;BME280;8445;51.270;9.434;2022-08-19T02:14:42;99069.81;;;21.87;63.23
16664;BME280;8445;51.270;9.434;2022-08-19T02:17:08;99064.00;;;21.83;65.38
16664;BME280;8445;51.270;9.434;2022-08-19T02:19:34;99065.22;;;21.81;65.37
16664;BME280;8445;51.270;9.434;2022-08-19T02:22:00;99053.63;;;21.80;64.72
16664;BME280;8445;51.270;9.434;2022-08-19T02:24:27;99053.03;;;21.85;64.24
16664;BME280;8445;51.270;9.434;2022-08-19T02:26:53;99054.44;;;21.81;64.17
16664;BME280;8445;51.270;9.434;2022-08-19T02:29:19;99054.06;;;21.84;63.94
16664;BME280;8445;51.270;9.434;2022-08-19T02:31:46;99062.75;;;21.86;63.88
16664;BME280;8445;51.270;9.434;2022-08-19T02:34:12;99053.41;;;21.82;63.27
16664;BME280;8445;51.270;9.434;2022-08-19T02:36:38;99056.06;;;21.68;63.77
16664;BME280;8445;51.270;9.434;2022-08-19T02:39:03;99057.19;;;21.59;64.53
16664;BME280;8445;51.270;9.434;2022-08-19T02:41:32;99061.72;;;21.58;64.85
16664;BME280;8445;51.270;9.434;2022-08-19T02:44:01;99068.34;;;21.56;64.51
16664;BME280;8445;51.270;9.434;2022-08-19T02:46:33;99062.34;;;21.54;64.73
16664;BME280;8445;51.270;9.434;2022-08-19T02:49:06;99050.34;;;21.56;64.76
16664;BME280;8445;51.270;9.434;2022-08-19T02:51:39;99054.25;;;21.54;64.15
16664;BME280;8445;51.270;9.434;2022-08-19T02:54:07;99051.97;;;21.51;64.39
16664;BME280;8445;51.270;9.434;2022-08-19T02:56:36;99066.66;;;21.48;64.24
16664;BME280;8445;51.270;9.434;2022-08-19T02:59:04;99053.38;;;21.46;63.94
16664;BME280;8445;51.270;9.434;2022-08-19T03:01:35;99064.75;;;21.42;64.79
16664;BME280;8445;51.270;9.434;2022-08-19T03:04:04;99065.38;;;21.44;65.38
16664;BME280;8445;51.270;9.434;2022-08-19T03:06:31;99071.97;;;21.41;65.30
16664;BME280;8445;51.270;9.434;2022-08-19T03:08:57;99068.63;;;21.39;65.56
16664;BME280;8445;51.270;9.434;2022-08-19T03:11:32;99071.56;;;21.44;66.74
16664;BME280;8445;51.270;9.434;2022-08-19T03:13:59;99071.78;;;21.43;64.95
16664;BME280;8445;51.270;9.434;2022-08-19T03:16:28;99075.69;;;21.40;64.76
16664;BME280;8445;51.270;9.434;2022-08-19T03:18:57;99083.75;;;21.40;64.92
16664;BME280;8445;51.270;9.434;2022-08-19T03:21:29;99076.06;;;21.37;64.41
16664;BME280;8445;51.270;9.434;2022-08-19T03:23:59;99076.91;;;21.38;64.59
16664;BME280;8445;51.270;9.434;2022-08-19T03:26:26;99084.16;;;21.37;63.99
16664;BME280;8445;51.270;9.434;2022-08-19T03:28:52;99084.91;;;21.31;64.05
16664;BME280;8445;51.270;9.434;2022-08-19T03:31:22;99082.22;;;21.31;64.36
16664;BME280;8445;51.270;9.434;2022-08-19T03:33:50;99078.91;;;21.29;64.00
16664;BME280;8445;51.270;9.434;2022-08-19T03:36:21;99083.72;;;21.33;64.51
16664;BME280;8445;51.270;9.434;2022-08-19T03:38:55;99087.19;;;21.27;63.84
16664;BME280;8445;51.270;9.434;2022-08-19T03:41:25;99095.69;;;21.31;63.71
16664;BME280;8445;51.270;9.434;2022-08-19T03:43:53;99101.25;;;21.29;63.18
16664;BME280;8445;51.270;9.434;2022-08-19T03:46:26;99108.75;;;21.34;63.53
16664;BME280;8445;51.270;9.434;2022-08-19T03:48:56;99116.56;;;21.29;63.03
16664;BME280;8445;51.270;9.434;2022-08-19T03:51:35;99102.09;;;21.30;62.74
16664;BME280;8445;51.270;9.434;2022-08-19T03:54:07;99095.03;;;21.29;62.76
16664;BME280;8445;51.270;9.434;2022-08-19T03:56:39;99100.38;;;21.22;63.00
16664;BME280;8445;51.270;9.434;2022-08-19T03:59:09;99087.94;;;21.21;63.04
16664;BME280;8445;51.270;9.434;2022-08-19T04:01:36;99097.84;;;21.21;62.74
16664;BME280;8445;51.270;9.434;2022-08-19T04:04:02;99095.16;;;21.21;62.76
16664;BME280;8445;51.270;9.434;2022-08-19T04:06:32;99095.38;;;21.19;62.81
16664;BME280;8445;51.270;9.434;2022-08-19T04:08:59;99100.75;;;21.19;62.81
16664;BME280;8445;51.270;9.434;2022-08-19T04:11:31;99105.69;;;21.15;62.59
16664;BME280;8445;51.270;9.434;2022-08-19T04:13:59;99109.03;;;21.17;62.27
16664;BME280;8445;51.270;9.434;2022-08-19T04:16:27;99107.75;;;21.13;62.52
16664;BME280;8445;51.270;9.434;2022-08-19T04:18:59;99120.19;;;21.14;62.44
16664;BME280;8445;51.270;9.434;2022-08-19T04:21:27;99116.47;;;21.15;62.25
16664;BME280;8445;51.270;9.434;2022-08-19T04:23:55;99121.00;;;21.15;62.35
16664;BME280;8445;51.270;9.434;2022-08-19T04:26:26;99111.47;;;21.12;61.97
16664;BME280;8445;51.270;9.434;2022-08-19T04:28:54;99110.19;;;21.08;62.33
16664;BME280;8445;51.270;9.434;2022-08-19T04:31:31;99106.09;;;21.12;61.91
16664;BME280;8445;51.270;9.434;2022-08-19T04:34:00;99105.56;;;21.02;62.10
16664;BME280;8445;51.270;9.434;2022-08-19T04:36:35;99107.28;;;21.10;62.21
16664;BME280;8445;51.270;9.434;2022-08-19T04:39:06;99112.22;;;21.06;62.14
16664;BME280;8445;51.270;9.434;2022-08-19T04:41:33;99115.09;;;21.05;61.96
16664;BME280;8445;51.270;9.434;2022-08-19T04:44:18;99114.28;;;21.04;61.72
16664;BME280;8445;51.270;9.434;2022-08-19T04:46:46;99106.38;;;21.02;61.76
16664;BME280;8445;51.270;9.434;2022-08-19T04:49:16;99098.91;;;20.98;62.00
16664;BME280;8445;51.270;9.434;2022-08-19T04:51:45;99104.47;;;20.96;61.93
16664;BME280;8445;51.270;9.434;2022-08-19T04:54:14;99106.31;;;20.96;61.84
16664;BME280;8445;51.270;9.434;2022-08-19T04:56:40;99104.28;;;20.98;61.88
16664;BME280;8445;51.270;9.434;2022-08-19T04:59:07;99101.22;;;21.01;61.91
16664;BME280;8445;51.270;9.434;2022-08-19T05:01:34;99105.34;;;21.03;61.63
16664;BME280;8445;51.270;9.434;2022-08-19T05:04:05;99105.81;;;21.07;61.71
16664;BME280;8445;51.270;9.434;2022-08-19T05:06:32;99117.22;;;21.09;61.74
16664;BME280;8445;51.270;9.434;2022-08-19T05:09:02;99116.63;;;21.14;61.57
16664;BME280;8445;51.270;9.434;2022-08-19T05:11:35;99119.59;;;21.19;61.66
16664;BME280;8445;51.270;9.434;2022-08-19T05:14:09;99119.00;;;21.24;61.70
16664;BME280;8445;51.270;9.434;2022-08-19T05:16:38;99121.31;;;21.27;61.90
16664;BME280;8445;51.270;9.434;2022-08-19T05:19:04;99122.19;;;21.34;61.99
16664;BME280;8445;51.270;9.434;2022-08-19T05:21:49;99132.00;;;21.42;61.89
16664;BME280;8445;51.270;9.434;2022-08-19T05:24:33;99122.56;;;21.53;62.07
16664;BME280;8445;51.270;9.434;2022-08-19T05:27:01;99121.97;;;21.57;62.12
16664;BME280;8445;51.270;9.434;2022-08-19T05:29:29;99127.06;;;21.67;62.54
16664;BME280;8445;51.270;9.434;2022-08-19T05:31:58;99127.13;;;21.81;62.03
16664;BME280;8445;51.270;9.434;2022-08-19T05:34:26;99113.34;;;21.90;62.14
16664;BME280;8445;51.270;9.434;2022-08-19T05:36:58;99116.31;;;22.02;62.01
16664;BME280;8445;51.270;9.434;2022-08-19T05:39:32;99117.16;;;22.03;60.96
16664;BME280;8445;51.270;9.434;2022-08-19T05:42:07;99119.47;;;22.13;61.97
16664;BME280;8445;51.270;9.434;2022-08-19T05:44:38;99106.88;;;22.20;62.15
16664;BME280;8445;51.270;9.434;2022-08-19T05:47:07;99113.72;;;22.23;61.74
16664;BME280;8445;51.270;9.434;2022-08-19T05:49:35;99118.13;;;22.30;61.14
16664;BME280;8445;51.270;9.434;2022-08-19T05:52:09;99118.56;;;22.41;61.37
16664;BME280;8445;51.270;9.434;2022-08-19T05:54:39;99118.66;;;22.47;60.78
16664;BME280;8445;51.270;9.434;2022-08-19T05:57:08;99120.09;;;22.50;61.46
16664;BME280;8445;51.270;9.434;2022-08-19T05:59:34;99116.59;;;22.56;61.31
16664;BME280;8445;51.270;9.434;2022-08-19T06:02:02;99114.13;;;22.61;61.18
16664;BME280;8445;51.270;9.434;2022-08-19T06:04:28;99111.66;;;22.67;60.84
16664;BME280;8445;51.270;9.434;2022-08-19T06:06:54;99111.22;;;22.56;61.11
16664;BME280;8445;51.270;9.434;2022-08-19T06:09:22;99106.22;;;22.53;61.11
16664;BME280;8445;51.270;9.434;2022-08-19T06:11:53;99101.69;;;22.60;60.98
16664;BME280;8445;51.270;9.434;2022-08-19T06:14:24;99105.88;;;22.63;60.78
16664;BME280;8445;51.270;9.434;2022-08-19T06:16:51;99102.75;;;22.66;60.99
16664;BME280;8445;51.270;9.434;2022-08-19T06:19:22;99108.16;;;22.73;60.79
16664;BME280;8445;51.270;9.434;2022-08-19T06:21:51;99113.56;;;22.73;60.55
16664;BME280;8445;51.270;9.434;2022-08-19T06:24:23;99121.19;;;22.69;59.51
16664;BME280;8445;51.270;9.434;2022-08-19T06:26:52;99122.06;;;22.70;60.59
16664;BME280;8445;51.270;9.434;2022-08-19T06:29:22;99129.09;;;22.71;60.68
16664;BME280;8445;51.270;9.434;2022-08-19T06:31:52;99130.75;;;22.72;60.66
16664;BME280;8445;51.270;9.434;2022-08-19T06:34:19;99138.69;;;22.80;60.60
16664;BME280;8445;51.270;9.434;2022-08-19T06:36:48;99137.19;;;22.77;60.90
16664;BME280;8445;51.270;9.434;2022-08-19T06:39:24;99141.16;;;22.75;59.74
16664;BME280;8445;51.270;9.434;2022-08-19T06:41:57;99146.47;;;22.61;59.79
16664;BME280;8445;51.270;9.434;2022-08-19T06:44:25;99154.16;;;22.64;60.72
16664;BME280;8445;51.270;9.434;2022-08-19T06:46:53;99151.69;;;22.63;60.80
16664;BME280;8445;51.270;9.434;2022-08-19T06:49:19;99168.50;;;22.72;60.73
16664;BME280;8445;51.270;9.434;2022-08-19T06:51:47;99163.56;;;22.82;60.72
16664;BME280;8445;51.270;9.434;2022-08-19T06:54:16;99168.13;;;22.82;60.78
16664;BME280;8445;51.270;9.434;2022-08-19T06:56:43;99176.03;;;22.97;61.11
16664;BME280;8445;51.270;9.434;2022-08-19T06:59:14;99192.50;;;23.15;61.06
16664;BME280;8445;51.270;9.434;2022-08-19T07:01:46;99196.78;;;23.51;60.86
16664;BME280;8445;51.270;9.434;2022-08-19T07:04:16;99199.91;;;23.82;61.11
16664;BME280;8445;51.270;9.434;2022-08-19T07:06:43;99201.59;;;24.03;60.30
16664;BME280;8445;51.270;9.434;2022-08-19T07:09:15;99205.72;;;24.12;60.38
16664;BME280;8445;51.270;9.434;2022-08-19T07:11:51;99205.91;;;24.24;57.76
16664;BME280;8445;51.270;9.434;2022-08-19T07:14:25;99201.75;;;24.28;60.30
16664;BME280;8445;51.270;9.434;2022-08-19T07:16:54;99206.44;;;24.60;59.35
16664;BME280;8445;51.270;9.434;2022-08-19T07:19:24;99200.16;;;24.80;60.05
16664;BME280;8445;51.270;9.434;2022-08-19T07:21:54;99201.41;;;24.77;59.53
16664;BME280;8445;51.270;9.434;2022-08-19T07:24:23;99208.31;;;24.60;59.39
16664;BME280;8445;51.270;9.434;2022-08-19T07:26:52;99207.50;;;24.59;59.47
16664;BME280;8445;51.270;9.434;2022-08-19T07:29:20;99199.00;;;24.49;57.90
16664;BME280;8445;51.270;9.434;2022-08-19T07:31:52;99213.31;;;24.49;59.14
16664;BME280;8445;51.270;9.434;2022-08-19T07:34:22;99206.88;;;24.50;59.85
16664;BME280;8445;51.270;9.434;2022-08-19T07:36:49;99217.22;;;24.74;59.71
16664;BME280;8445;51.270;9.434;2022-08-19T07:39:25;99219.28;;;24.85;57.14
16664;BME280;8445;51.270;9.434;2022-08-19T07:41:52;99216.66;;;24.58;56.38
16664;BME280;8445;51.270;9.434;2022-08-19T07:44:19;99216.00;;;24.76;57.37
16664;BME280;8445;51.270;9.434;2022-08-19T07:46:50;99216.41;;;24.73;56.07
16664;BME280;8445;51.270;9.434;2022-08-19T07:49:17;99206.31;;;25.00;58.70
16664;BME280;8445;51.270;9.434;2022-08-19T07:54:20;99187.69;;;25.17;57.60
16664;BME280;8445;51.270;9.434;2022-08-19T07:56:46;99203.16;;;25.04;56.53
16664;BME280;8445;51.270;9.434;2022-08-19T07:59:12;99195.47;;;25.00;57.76
16664;BME280;8445;51.270;9.434;2022-08-19T08:01:39;99201.38;;;24.91;55.75
16664;BME280;8445;51.270;9.434;2022-08-19T08:04:07;99200.13;;;24.86;56.56
16664;BME280;8445;51.270;9.434;2022-08-19T08:06:53;99205.50;;;24.93;57.29
16664;BME280;8445;51.270;9.434;2022-08-19T08:09:41;99199.47;;;24.91;56.83
16664;BME280;8445;51.270;9.434;2022-08-19T08:12:13;99210.09;;;24.93;54.17
16664;BME280;8445;51.270;9.434;2022-08-19T08:14:52;99206.97;;;24.89;53.41
16664;BME280;8445;51.270;9.434;2022-08-19T08:17:24;99216.00;;;24.76;52.89
16664;BME280;8445;51.270;9.434;2022-08-19T08:19:51;99214.75;;;24.72;55.95
16664;BME280;8445;51.270;9.434;2022-08-19T08:22:20;99214.75;;;24.65;56.21
16664;BME280;8445;51.270;9.434;2022-08-19T08:25:12;99219.47;;;24.90;53.50
16664;BME280;8445;51.270;9.434;2022-08-19T08:27:41;99226.59;;;25.23;56.29
16664;BME280;8445;51.270;9.434;2022-08-19T08:30:10;99216.22;;;25.20;54.86
16664;BME280;8445;51.270;9.434;2022-08-19T08:32:40;99219.91;;;25.26;55.95
16664;BME280;8445;51.270;9.434;2022-08-19T08:35:11;99232.03;;;25.23;54.64
16664;BME280;8445;51.270;9.434;2022-08-19T08:37:38;99229.56;;;25.15;55.63
16664;BME280;8445;51.270;9.434;2022-08-19T08:40:21;99235.63;;;25.49;52.88
16664;BME280;8445;51.270;9.434;2022-08-19T08:43:29;99242.53;;;25.77;51.25
16664;BME280;8445;51.270;9.434;2022-08-19T08:48:58;99250.88;;;25.75;51.24
16664;BME280;8445;51.270;9.434;2022-08-19T08:51:42;99254.75;;;25.54;50.30
16664;BME280;8445;51.270;9.434;2022-08-19T08:54:12;99251.06;;;25.49;53.01
16664;BME280;8445;51.270;9.434;2022-08-19T08:56:43;99256.91;;;25.39;52.36
16664;BME280;8445;51.270;9.434;2022-08-19T08:59:28;99261.28;;;25.40;51.41
16664;BME280;8445;51.270;9.434;2022-08-19T09:01:57;99267.31;;;25.49;54.85
16664;BME280;8445;51.270;9.434;2022-08-19T09:04:24;99275.88;;;25.45;55.06
16664;BME280;8445;51.270;9.434;2022-08-19T09:10:14;99259.91;;;25.24;51.86
16664;BME280;8445;51.270;9.434;2022-08-19T09:14:10;99252.81;;;25.29;54.02
16664;BME280;8445;51.270;9.434;2022-08-19T09:16:15;99261.53;;;25.70;52.04
16664;BME280;8445;51.270;9.434;2022-08-19T09:18:46;99256.91;;;26.03;54.42
16664;BME280;8445;51.270;9.434;2022-08-19T09:21:15;99262.91;;;26.37;52.45
16664;BME280;8445;51.270;9.434;2022-08-19T09:23:41;99257.94;;;26.34;52.99
16664;BME280;8445;51.270;9.434;2022-08-19T09:26:15;99261.81;;;26.19;50.31
16664;BME280;8445;51.270;9.434;2022-08-19T09:28:44;99256.94;;;26.47;54.29
16664;BME280;8445;51.270;9.434;2022-08-19T09:31:14;99265.50;;;26.25;51.14
16664;BME280;8445;51.270;9.434;2022-08-19T09:33:41;99257.94;;;26.53;53.47
16664;BME280;8445;51.270;9.434;2022-08-19T09:36:13;99254.16;;;26.35;50.01
16664;BME280;8445;51.270;9.434;2022-08-19T09:38:40;99244.03;;;26.86;53.47
16664;BME280;8445;51.270;9.434;2022-08-19T09:41:17;99256.34;;;27.19;50.11
16664;BME280;8445;51.270;9.434;2022-08-19T09:43:47;99263.00;;;27.05;49.38
16664;BME280;8445;51.270;9.434;2022-08-19T09:46:14;99259.41;;;26.92;51.29
16664;BME280;8445;51.270;9.434;2022-08-19T09:48:42;99264.84;;;27.23;52.84
16664;BME280;8445;51.270;9.434;2022-08-19T09:51:16;99258.06;;;27.32;50.97
16664;BME280;8445;51.270;9.434;2022-08-19T09:53:45;99253.22;;;27.53;51.57
16664;BME280;8445;51.270;9.434;2022-08-19T09:56:13;99256.31;;;27.07;51.65
16664;BME280;8445;51.270;9.434;2022-08-19T09:58:40;99250.19;;;26.93;52.26
16664;BME280;8445;51.270;9.434;2022-08-19T10:01:07;99258.63;;;26.67;49.44
16664;BME280;8445;51.270;9.434;2022-08-19T10:03:36;99255.84;;;26.73;51.91
16664;BME280;8445;51.270;9.434;2022-08-19T10:06:05;99248.16;;;27.07;51.80
16664;BME280;8445;51.270;9.434;2022-08-19T10:08:36;99257.00;;;27.33;51.52
16664;BME280;8445;51.270;9.434;2022-08-19T10:11:04;99245.63;;;27.25;49.74
16664;BME280;8445;51.270;9.434;2022-08-19T10:13:32;99258.88;;;27.02;51.49
16664;BME280;8445;51.270;9.434;2022-08-19T10:16:16;99248.97;;;26.52;48.20
16664;BME280;8445;51.270;9.434;2022-08-19T10:18:44;99242.78;;;26.45;51.76
16664;BME280;8445;51.270;9.434;2022-08-19T10:21:17;99244.00;;;26.49;48.78
16664;BME280;8445;51.270;9.434;2022-08-19T10:23:47;99236.56;;;27.00;48.51
16664;BME280;8445;51.270;9.434;2022-08-19T10:26:20;99240.72;;;27.76;47.37
16664;BME280;8445;51.270;9.434;2022-08-19T10:28:46;99243.94;;;27.85;49.58
16664;BME280;8445;51.270;9.434;2022-08-19T10:31:20;99226.94;;;27.89;45.99
16664;BME280;8445;51.270;9.434;2022-08-19T10:33:51;99216.31;;;28.00;47.78
16664;BME280;8445;51.270;9.434;2022-08-19T10:36:34;99223.75;;;27.92;45.08
16664;BME280;8445;51.270;9.434;2022-08-19T10:39:09;99236.13;;;27.76;45.77
16664;BME280;8445;51.270;9.434;2022-08-19T10:41:38;99221.69;;;27.64;49.85
16664;BME280;8445;51.270;9.434;2022-08-19T10:44:11;99225.25;;;27.76;45.67
16664;BME280;8445;51.270;9.434;2022-08-19T10:46:41;99217.94;;;27.77;46.72
16664;BME280;8445;51.270;9.434;2022-08-19T10:49:11;99217.94;;;27.77;46.78
16664;BME280;8445;51.270;9.434;2022-08-19T10:51:39;99212.75;;;27.87;48.66
16664;BME280;8445;51.270;9.434;2022-08-19T10:54:24;99210.63;;;28.01;48.80
16664;BME280;8445;51.270;9.434;2022-08-19T10:57:10;99215.53;;;27.57;48.89
16664;BME280;8445;51.270;9.434;2022-08-19T10:59:37;99217.00;;;27.41;49.09
16664;BME280;8445;51.270;9.434;2022-08-19T11:02:07;99215.03;;;27.48;46.55
16664;BME280;8445;51.270;9.434;2022-08-19T11:04:36;99212.94;;;27.31;48.53
16664;BME280;8445;51.270;9.434;2022-08-19T11:07:04;99220.03;;;27.02;47.53
16664;BME280;8445;51.270;9.434;2022-08-19T11:09:31;99201.34;;;27.24;48.27
16664;BME280;8445;51.270;9.434;2022-08-19T11:12:00;99199.41;;;27.13;46.65
16664;BME280;8445;51.270;9.434;2022-08-19T11:14:33;99189.84;;;27.41;47.45
16664;BME280;8445;51.270;9.434;2022-08-19T11:17:00;99195.91;;;27.24;47.79
16664;BME280;8445;51.270;9.434;2022-08-19T11:19:26;99197.41;;;27.08;47.63
16664;BME280;8445;51.270;9.434;2022-08-19T11:21:53;99191.84;;;26.84;47.83
16664;BME280;8445;51.270;9.434;2022-08-19T11:24:25;99175.28;;;26.74;46.65
16664;BME280;8445;51.270;9.434;2022-08-19T11:26:55;99178.59;;;26.57;47.87
16664;BME280;8445;51.270;9.434;2022-08-19T11:29:30;99179.50;;;26.51;47.83
16664;BME280;8445;51.270;9.434;2022-08-19T11:31:56;99173.78;;;26.59;47.66
16664;BME280;8445;51.270;9.434;2022-08-19T11:34:27;99176.09;;;26.74;47.62
16664;BME280;8445;51.270;9.434;2022-08-19T11:36:56;99171.28;;;26.95;47.69
16664;BME280;8445;51.270;9.434;2022-08-19T11:39:34;99177.66;;;27.31;45.17
16664;BME280;8445;51.270;9.434;2022-08-19T11:42:07;99179.09;;;27.34;46.30
16664;BME280;8445;51.270;9.434;2022-08-19T11:44:55;99174.34;;;27.41;45.41
16664;BME280;8445;51.270;9.434;2022-08-19T11:47:23;99172.00;;;27.33;46.29
16664;BME280;8445;51.270;9.434;2022-08-19T11:49:49;99171.16;;;27.32;46.92
16664;BME280;8445;51.270;9.434;2022-08-19T11:52:15;99168.69;;;27.43;46.94
16664;BME280;8445;51.270;9.434;2022-08-19T11:54:41;99167.19;;;27.47;46.74
16664;BME280;8445;51.270;9.434;2022-08-19T11:57:07;99179.63;;;27.55;46.89
16664;BME280;8445;51.270;9.434;2022-08-19T11:59:32;99165.47;;;27.88;46.82
16664;BME280;8445;51.270;9.434;2022-08-19T12:01:58;99172.25;;;28.21;46.37
16664;BME280;8445;51.270;9.434;2022-08-19T12:04:24;99164.16;;;28.26;46.04
16664;BME280;8445;51.270;9.434;2022-08-19T12:06:50;99173.66;;;28.12;44.16
16664;BME280;8445;51.270;9.434;2022-08-19T12:09:16;99170.09;;;28.00;44.62
16664;BME280;8445;51.270;9.434;2022-08-19T12:11:43;99156.13;;;28.08;46.57
16664;BME280;8445;51.270;9.434;2022-08-19T12:14:12;99158.47;;;28.40;46.60
16664;BME280;8445;51.270;9.434;2022-08-19T12:16:38;99153.78;;;28.64;46.11
16664;BME280;8445;51.270;9.434;2022-08-19T12:19:05;99149.91;;;28.60;45.11
16664;BME280;8445;51.270;9.434;2022-08-19T12:21:34;99154.75;;;28.17;44.41
16664;BME280;8445;51.270;9.434;2022-08-19T12:24:03;99154.59;;;28.00;45.57
16664;BME280;8445;51.270;9.434;2022-08-19T12:26:30;99148.22;;;27.83;45.70
16664;BME280;8445;51.270;9.434;2022-08-19T12:28:57;99135.69;;;27.93;46.15
16664;BME280;8445;51.270;9.434;2022-08-19T12:31:27;99132.38;;;28.03;45.43
16664;BME280;8445;51.270;9.434;2022-08-19T12:33:54;99133.44;;;27.90;44.44
16664;BME280;8445;51.270;9.434;2022-08-19T12:36:22;99135.22;;;27.96;43.96
16664;BME280;8445;51.270;9.434;2022-08-19T12:38:48;99145.97;;;27.67;45.00
16664;BME280;8445;51.270;9.434;2022-08-19T12:41:16;99137.13;;;27.72;44.42
16664;BME280;8445;51.270;9.434;2022-08-19T12:43:44;99139.47;;;27.80;44.86
16664;BME280;8445;51.270;9.434;2022-08-19T12:46:13;99155.94;;;27.43;43.07
16664;BME280;8445;51.270;9.434;2022-08-19T12:48:39;99140.09;;;27.40;44.40
16664;BME280;8445;51.270;9.434;2022-08-19T12:51:11;99128.16;;;27.17;44.32
16664;BME280;8445;51.270;9.434;2022-08-19T12:53:38;99124.72;;;27.10;43.83
16664;BME280;8445;51.270;9.434;2022-08-19T12:56:05;99124.00;;;27.15;44.96
16664;BME280;8445;51.270;9.434;2022-08-19T12:58:31;99132.66;;;27.35;44.75
16664;BME280;8445;51.270;9.434;2022-08-19T13:01:13;99133.88;;;27.40;43.71
16664;BME280;8445;51.270;9.434;2022-08-19T13:03:42;99126.97;;;27.79;44.57
16664;BME280;8445;51.270;9.434;2022-08-19T13:06:12;99123.84;;;28.11;44.18
16664;BME280;8445;51.270;9.434;2022-08-19T13:08:38;99137.88;;;28.44;43.94
16664;BME280;8445;51.270;9.434;2022-08-19T13:11:15;99121.97;;;28.24;40.97
16664;BME280;8445;51.270;9.434;2022-08-19T13:13:48;99130.75;;;28.14;40.90
16664;BME280;8445;51.270;9.434;2022-08-19T13:16:17;99123.88;;;28.23;40.89
16664;BME280;8445;51.270;9.434;2022-08-19T13:18:46;99130.31;;;28.46;43.50
16664;BME280;8445;51.270;9.434;2022-08-19T13:21:19;99127.28;;;28.31;41.40
16664;BME280;8445;51.270;9.434;2022-08-19T13:23:46;99127.75;;;28.28;43.41
16664;BME280;8445;51.270;9.434;2022-08-19T13:26:13;99123.84;;;28.35;42.57
16664;BME280;8445;51.270;9.434;2022-08-19T13:28:40;99131.69;;;28.61;42.46
16664;BME280;8445;51.270;9.434;2022-08-19T13:31:27;99129.88;;;28.66;40.36
16664;BME280;8445;51.270;9.434;2022-08-19T13:34:13;99124.28;;;28.44;42.65
16664;BME280;8445;51.270;9.434;2022-08-19T13:36:39;99130.97;;;28.65;42.68
16664;BME280;8445;51.270;9.434;2022-08-19T13:39:07;99132.13;;;28.81;42.70
16664;BME280;8445;51.270;9.434;2022-08-19T13:41:35;99138.28;;;29.06;42.31